sensor_id;sensor_type;location;lat;lon;timestamp;P1;durP1;ratioP1;P2;durP2;ratioP2
45316;SDS011;31053;55.870;37.592;2024-03-02T00:00:58;24.25;;;12.10;;
45316;SDS011;31053;55.870;37.592;2024-03-02T00:04:06;27.40;;;12.55;;
45316;SDS011;31053;55.870;37.592;2024-03-02T00:07:12;25.45;;;12.65;;
45316;SDS011;31053;55.870;37.592;2024-03-02T00:13:24;33.72;;;15.05;;
45316;SDS011;31053;55.870;37.592;2024-03-02T00:16:32;32.35;;;12.80;;
45316;SDS011;31053;55.870;37.592;2024-03-02T00:19:38;27.50;;;12.70;;
45316;SDS011;31053;55.870;37.592;2024-03-02T00:22:44;25.15;;;10.40;;
45316;SDS011;31053;55.870;37.592;2024-03-02T00:25:49;28.45;;;12.98;;
45316;SDS011;31053;55.870;37.592;2024-03-02T00:28:57;31.35;;;12.80;;
45316;SDS011;31053;55.870;37.592;2024-03-02T00:32:02;26.95;;;13.07;;
45316;SDS011;31053;55.870;37.592;2024-03-02T00:35:07;35.90;;;14.23;;
45316;SDS011;31053;55.870;37.592;2024-03-02T00:38:11;33.22;;;14.48;;
45316;SDS011;31053;55.870;37.592;2024-03-02T00:41:29;41.75;;;15.82;;
45316;SDS011;31053;55.870;37.592;2024-03-02T00:44:35;30.20;;;15.00;;
45316;SDS011;31053;55.870;37.592;2024-03-02T00:47:41;36.75;;;17.23;;
45316;SDS011;31053;55.870;37.592;2024-03-02T00:50:46;33.33;;;14.98;;
45316;SDS011;31053;55.870;37.592;2024-03-02T00:53:58;33.33;;;14.80;;
45316;SDS011;31053;55.870;37.592;2024-03-02T00:57:04;27.83;;;13.00;;
45316;SDS011;31053;55.870;37.592;2024-03-02T01:00:09;32.28;;;14.43;;
45316;SDS011;31053;55.870;37.592;2024-03-02T01:03:16;32.30;;;14.38;;
45316;SDS011;31053;55.870;37.592;2024-03-02T01:06:20;39.08;;;16.77;;
45316;SDS011;31053;55.870;37.592;2024-03-02T01:09:26;38.53;;;16.47;;
45316;SDS011;31053;55.870;37.592;2024-03-02T01:12:31;32.70;;;14.68;;
45316;SDS011;31053;55.870;37.592;2024-03-02T01:15:35;27.85;;;13.18;;
45316;SDS011;31053;55.870;37.592;2024-03-02T01:18:40;30.95;;;14.77;;
45316;SDS011;31053;55.870;37.592;2024-03-02T01:21:44;28.13;;;13.25;;
45316;SDS011;31053;55.870;37.592;2024-03-02T01:24:49;30.48;;;13.13;;
45316;SDS011;31053;55.870;37.592;2024-03-02T01:27:54;35.10;;;13.57;;
45316;SDS011;31053;55.870;37.592;2024-03-02T01:30:59;45.35;;;19.67;;
45316;SDS011;31053;55.870;37.592;2024-03-02T01:34:05;43.22;;;20.40;;
45316;SDS011;31053;55.870;37.592;2024-03-02T01:37:09;36.40;;;13.93;;
45316;SDS011;31053;55.870;37.592;2024-03-02T01:40:14;28.05;;;12.95;;
45316;SDS011;31053;55.870;37.592;2024-03-02T01:43:19;41.08;;;19.80;;
45316;SDS011;31053;55.870;37.592;2024-03-02T01:46:24;28.70;;;12.45;;
45316;SDS011;31053;55.870;37.592;2024-03-02T01:49:28;32.88;;;13.23;;
45316;SDS011;31053;55.870;37.592;2024-03-02T01:52:34;24.02;;;12.23;;
45316;SDS011;31053;55.870;37.592;2024-03-02T01:55:38;24.58;;;12.18;;
45316;SDS011;31053;55.870;37.592;2024-03-02T01:58:42;28.42;;;12.90;;
45316;SDS011;31053;55.870;37.592;2024-03-02T02:01:48;26.60;;;10.63;;
45316;SDS011;31053;55.870;37.592;2024-03-02T02:04:53;32.45;;;13.45;;
45316;SDS011;31053;55.870;37.592;2024-03-02T02:07:58;29.20;;;12.23;;
45316;SDS011;31053;55.870;37.592;2024-03-02T02:11:03;29.35;;;12.77;;
45316;SDS011;31053;55.870;37.592;2024-03-02T02:14:08;19.35;;;9.75;;
45316;SDS011;31053;55.870;37.592;2024-03-02T02:17:13;26.65;;;12.60;;
45316;SDS011;31053;55.870;37.592;2024-03-02T02:20:18;34.63;;;14.77;;
45316;SDS011;31053;55.870;37.592;2024-03-02T02:23:22;30.13;;;12.10;;
45316;SDS011;31053;55.870;37.592;2024-03-02T02:26:27;47.08;;;16.95;;
45316;SDS011;31053;55.870;37.592;2024-03-02T02:29:32;28.05;;;13.40;;
45316;SDS011;31053;55.870;37.592;2024-03-02T02:32:36;30.38;;;13.70;;
45316;SDS011;31053;55.870;37.592;2024-03-02T02:35:41;36.38;;;14.07;;
45316;SDS011;31053;55.870;37.592;2024-03-02T02:42:31;29.60;;;14.23;;
45316;SDS011;31053;55.870;37.592;2024-03-02T02:46:05;21.20;;;10.40;;
45316;SDS011;31053;55.870;37.592;2024-03-02T02:49:09;32.17;;;13.95;;
45316;SDS011;31053;55.870;37.592;2024-03-02T02:52:14;27.23;;;13.77;;
45316;SDS011;31053;55.870;37.592;2024-03-02T02:55:19;31.42;;;12.80;;
45316;SDS011;31053;55.870;37.592;2024-03-02T02:58:23;37.13;;;15.00;;
45316;SDS011;31053;55.870;37.592;2024-03-02T03:01:28;33.03;;;14.80;;
45316;SDS011;31053;55.870;37.592;2024-03-02T03:04:33;34.70;;;14.52;;
45316;SDS011;31053;55.870;37.592;2024-03-02T03:07:39;31.83;;;14.20;;
45316;SDS011;31053;55.870;37.592;2024-03-02T03:10:44;29.45;;;13.48;;
45316;SDS011;31053;55.870;37.592;2024-03-02T03:13:49;41.22;;;16.33;;
45316;SDS011;31053;55.870;37.592;2024-03-02T03:16:54;33.83;;;12.82;;
45316;SDS011;31053;55.870;37.592;2024-03-02T03:19:58;31.40;;;14.63;;
45316;SDS011;31053;55.870;37.592;2024-03-02T03:23:03;32.20;;;15.93;;
45316;SDS011;31053;55.870;37.592;2024-03-02T03:26:11;36.67;;;17.30;;
45316;SDS011;31053;55.870;37.592;2024-03-02T03:29:15;34.33;;;15.82;;
45316;SDS011;31053;55.870;37.592;2024-03-02T03:32:20;41.72;;;17.63;;
45316;SDS011;31053;55.870;37.592;2024-03-02T03:35:26;41.08;;;18.23;;
45316;SDS011;31053;55.870;37.592;2024-03-02T03:38:30;55.90;;;23.52;;
45316;SDS011;31053;55.870;37.592;2024-03-02T03:41:35;42.45;;;20.40;;
45316;SDS011;31053;55.870;37.592;2024-03-02T03:44:40;43.42;;;20.80;;
45316;SDS011;31053;55.870;37.592;2024-03-02T03:47:45;49.38;;;21.75;;
45316;SDS011;31053;55.870;37.592;2024-03-02T03:50:50;50.33;;;22.75;;
45316;SDS011;31053;55.870;37.592;2024-03-02T03:53:56;38.75;;;17.13;;
45316;SDS011;31053;55.870;37.592;2024-03-02T03:57:03;44.03;;;19.35;;
45316;SDS011;31053;55.870;37.592;2024-03-02T04:00:12;45.42;;;19.02;;
45316;SDS011;31053;55.870;37.592;2024-03-02T04:03:17;47.00;;;21.63;;
45316;SDS011;31053;55.870;37.592;2024-03-02T04:06:21;60.67;;;22.67;;
45316;SDS011;31053;55.870;37.592;2024-03-02T04:09:26;55.95;;;24.70;;
45316;SDS011;31053;55.870;37.592;2024-03-02T04:12:31;51.97;;;24.73;;
45316;SDS011;31053;55.870;37.592;2024-03-02T04:15:35;53.25;;;24.17;;
45316;SDS011;31053;55.870;37.592;2024-03-02T04:18:40;46.40;;;21.27;;
45316;SDS011;31053;55.870;37.592;2024-03-02T04:21:45;41.15;;;18.88;;
45316;SDS011;31053;55.870;37.592;2024-03-02T04:24:50;37.78;;;18.42;;
45316;SDS011;31053;55.870;37.592;2024-03-02T04:27:55;46.60;;;19.88;;
45316;SDS011;31053;55.870;37.592;2024-03-02T04:30:59;52.55;;;20.48;;
45316;SDS011;31053;55.870;37.592;2024-03-02T04:34:04;49.65;;;21.23;;
45316;SDS011;31053;55.870;37.592;2024-03-02T04:37:10;53.53;;;22.95;;
45316;SDS011;31053;55.870;37.592;2024-03-02T04:40:16;44.20;;;18.20;;
45316;SDS011;31053;55.870;37.592;2024-03-02T04:43:22;50.22;;;22.20;;
45316;SDS011;31053;55.870;37.592;2024-03-02T04:46:27;50.67;;;21.15;;
45316;SDS011;31053;55.870;37.592;2024-03-02T04:49:33;44.42;;;18.88;;
45316;SDS011;31053;55.870;37.592;2024-03-02T04:52:38;46.17;;;19.38;;
45316;SDS011;31053;55.870;37.592;2024-03-02T04:55:43;39.63;;;17.10;;
45316;SDS011;31053;55.870;37.592;2024-03-02T04:58:47;35.72;;;16.90;;
45316;SDS011;31053;55.870;37.592;2024-03-02T05:01:52;30.40;;;15.35;;
45316;SDS011;31053;55.870;37.592;2024-03-02T05:04:57;33.60;;;15.85;;
45316;SDS011;31053;55.870;37.592;2024-03-02T05:08:01;42.08;;;19.52;;
45316;SDS011;31053;55.870;37.592;2024-03-02T05:11:06;38.78;;;17.63;;
45316;SDS011;31053;55.870;37.592;2024-03-02T05:14:29;34.38;;;15.68;;
45316;SDS011;31053;55.870;37.592;2024-03-02T05:17:34;34.22;;;15.95;;
45316;SDS011;31053;55.870;37.592;2024-03-02T05:20:39;33.13;;;17.20;;
45316;SDS011;31053;55.870;37.592;2024-03-02T05:23:44;38.78;;;16.10;;
45316;SDS011;31053;55.870;37.592;2024-03-02T05:26:48;31.83;;;13.93;;
45316;SDS011;31053;55.870;37.592;2024-03-02T05:29:53;32.40;;;14.93;;
45316;SDS011;31053;55.870;37.592;2024-03-02T05:32:58;24.15;;;12.85;;
45316;SDS011;31053;55.870;37.592;2024-03-02T05:36:03;30.48;;;13.93;;
45316;SDS011;31053;55.870;37.592;2024-03-02T05:39:08;25.37;;;11.77;;
45316;SDS011;31053;55.870;37.592;2024-03-02T05:42:14;26.42;;;11.65;;
45316;SDS011;31053;55.870;37.592;2024-03-02T05:45:20;23.83;;;12.38;;
45316;SDS011;31053;55.870;37.592;2024-03-02T05:48:25;30.00;;;10.63;;
45316;SDS011;31053;55.870;37.592;2024-03-02T05:51:30;26.98;;;14.38;;
45316;SDS011;31053;55.870;37.592;2024-03-02T05:54:34;29.00;;;14.85;;
45316;SDS011;31053;55.870;37.592;2024-03-02T05:57:39;32.80;;;14.80;;
45316;SDS011;31053;55.870;37.592;2024-03-02T06:00:44;34.47;;;16.20;;
45316;SDS011;31053;55.870;37.592;2024-03-02T06:03:50;34.05;;;15.50;;
45316;SDS011;31053;55.870;37.592;2024-03-02T06:06:54;41.33;;;19.52;;
45316;SDS011;31053;55.870;37.592;2024-03-02T06:09:59;36.92;;;17.65;;
45316;SDS011;31053;55.870;37.592;2024-03-02T06:13:04;37.30;;;18.20;;
45316;SDS011;31053;55.870;37.592;2024-03-02T06:16:09;42.20;;;20.23;;
45316;SDS011;31053;55.870;37.592;2024-03-02T06:19:14;30.85;;;15.20;;
45316;SDS011;31053;55.870;37.592;2024-03-02T06:22:19;35.83;;;17.10;;
45316;SDS011;31053;55.870;37.592;2024-03-02T06:25:24;41.03;;;20.35;;
45316;SDS011;31053;55.870;37.592;2024-03-02T06:28:29;53.63;;;23.63;;
45316;SDS011;31053;55.870;37.592;2024-03-02T06:31:35;65.45;;;29.20;;
45316;SDS011;31053;55.870;37.592;2024-03-02T06:34:40;42.88;;;19.48;;
45316;SDS011;31053;55.870;37.592;2024-03-02T06:37:46;51.92;;;23.80;;
45316;SDS011;31053;55.870;37.592;2024-03-02T06:40:51;55.80;;;23.40;;
45316;SDS011;31053;55.870;37.592;2024-03-02T06:43:56;35.40;;;18.63;;
45316;SDS011;31053;55.870;37.592;2024-03-02T06:47:03;53.55;;;23.27;;
45316;SDS011;31053;55.870;37.592;2024-03-02T06:50:08;42.50;;;18.23;;
45316;SDS011;31053;55.870;37.592;2024-03-02T06:53:13;44.20;;;19.70;;
45316;SDS011;31053;55.870;37.592;2024-03-02T06:56:21;43.92;;;19.70;;
45316;SDS011;31053;55.870;37.592;2024-03-02T06:59:26;37.40;;;17.33;;
45316;SDS011;31053;55.870;37.592;2024-03-02T07:02:31;32.78;;;15.90;;
45316;SDS011;31053;55.870;37.592;2024-03-02T07:05:38;35.47;;;18.45;;
45316;SDS011;31053;55.870;37.592;2024-03-02T07:08:49;43.75;;;20.23;;
45316;SDS011;31053;55.870;37.592;2024-03-02T07:11:54;48.20;;;23.90;;
45316;SDS011;31053;55.870;37.592;2024-03-02T07:14:59;50.30;;;24.10;;
45316;SDS011;31053;55.870;37.592;2024-03-02T07:18:09;52.05;;;23.45;;
45316;SDS011;31053;55.870;37.592;2024-03-02T07:21:13;50.90;;;20.80;;
45316;SDS011;31053;55.870;37.592;2024-03-02T07:24:19;35.07;;;18.03;;
45316;SDS011;31053;55.870;37.592;2024-03-02T07:27:24;51.00;;;22.65;;
45316;SDS011;31053;55.870;37.592;2024-03-02T07:30:29;37.72;;;19.38;;
45316;SDS011;31053;55.870;37.592;2024-03-02T07:33:34;46.78;;;22.13;;
45316;SDS011;31053;55.870;37.592;2024-03-02T07:36:38;36.10;;;17.52;;
45316;SDS011;31053;55.870;37.592;2024-03-02T07:39:43;32.65;;;15.82;;
45316;SDS011;31053;55.870;37.592;2024-03-02T07:42:50;36.30;;;17.23;;
45316;SDS011;31053;55.870;37.592;2024-03-02T07:45:54;34.10;;;15.75;;
45316;SDS011;31053;55.870;37.592;2024-03-02T07:49:00;42.08;;;21.13;;
45316;SDS011;31053;55.870;37.592;2024-03-02T07:52:04;31.33;;;16.23;;
45316;SDS011;31053;55.870;37.592;2024-03-02T07:55:09;37.83;;;15.07;;
45316;SDS011;31053;55.870;37.592;2024-03-02T07:58:14;36.88;;;16.38;;
45316;SDS011;31053;55.870;37.592;2024-03-02T08:01:19;33.42;;;16.10;;
45316;SDS011;31053;55.870;37.592;2024-03-02T08:04:23;34.25;;;16.27;;
45316;SDS011;31053;55.870;37.592;2024-03-02T08:07:30;41.50;;;18.45;;
45316;SDS011;31053;55.870;37.592;2024-03-02T08:10:35;40.45;;;16.27;;
45316;SDS011;31053;55.870;37.592;2024-03-02T08:13:40;42.05;;;19.05;;
45316;SDS011;31053;55.870;37.592;2024-03-02T08:16:44;38.85;;;18.02;;
45316;SDS011;31053;55.870;37.592;2024-03-02T08:19:49;44.58;;;20.33;;
45316;SDS011;31053;55.870;37.592;2024-03-02T08:22:53;38.70;;;17.73;;
45316;SDS011;31053;55.870;37.592;2024-03-02T08:25:59;37.30;;;17.10;;
45316;SDS011;31053;55.870;37.592;2024-03-02T08:29:04;43.35;;;17.35;;
45316;SDS011;31053;55.870;37.592;2024-03-02T08:32:08;30.85;;;15.32;;
45316;SDS011;31053;55.870;37.592;2024-03-02T08:35:13;45.80;;;19.65;;
45316;SDS011;31053;55.870;37.592;2024-03-02T08:38:17;40.70;;;19.33;;
45316;SDS011;31053;55.870;37.592;2024-03-02T08:41:22;31.40;;;15.00;;
45316;SDS011;31053;55.870;37.592;2024-03-02T08:44:27;31.23;;;14.45;;
45316;SDS011;31053;55.870;37.592;2024-03-02T08:47:31;39.42;;;18.17;;
45316;SDS011;31053;55.870;37.592;2024-03-02T08:50:36;31.63;;;15.35;;
45316;SDS011;31053;55.870;37.592;2024-03-02T08:53:41;34.67;;;15.60;;
45316;SDS011;31053;55.870;37.592;2024-03-02T08:56:47;42.90;;;19.88;;
45316;SDS011;31053;55.870;37.592;2024-03-02T08:59:52;27.48;;;14.85;;
45316;SDS011;31053;55.870;37.592;2024-03-02T09:02:58;22.58;;;13.05;;
45316;SDS011;31053;55.870;37.592;2024-03-02T09:06:03;28.58;;;13.70;;
45316;SDS011;31053;55.870;37.592;2024-03-02T09:09:07;27.35;;;13.30;;
45316;SDS011;31053;55.870;37.592;2024-03-02T09:12:12;25.00;;;12.75;;
45316;SDS011;31053;55.870;37.592;2024-03-02T09:15:16;39.33;;;16.17;;
45316;SDS011;31053;55.870;37.592;2024-03-02T09:18:21;36.55;;;14.90;;
45316;SDS011;31053;55.870;37.592;2024-03-02T09:21:26;38.90;;;17.80;;
45316;SDS011;31053;55.870;37.592;2024-03-02T09:24:31;41.70;;;18.70;;
45316;SDS011;31053;55.870;37.592;2024-03-02T09:27:37;45.60;;;18.75;;
45316;SDS011;31053;55.870;37.592;2024-03-02T09:30:43;39.03;;;17.17;;
45316;SDS011;31053;55.870;37.592;2024-03-02T09:33:47;39.60;;;18.35;;
45316;SDS011;31053;55.870;37.592;2024-03-02T09:36:52;34.97;;;16.63;;
45316;SDS011;31053;55.870;37.592;2024-03-02T09:39:57;38.40;;;17.13;;
45316;SDS011;31053;55.870;37.592;2024-03-02T09:43:03;28.15;;;14.27;;
45316;SDS011;31053;55.870;37.592;2024-03-02T09:46:10;27.50;;;13.82;;
45316;SDS011;31053;55.870;37.592;2024-03-02T09:49:15;26.55;;;12.88;;
45316;SDS011;31053;55.870;37.592;2024-03-02T09:52:20;24.88;;;12.00;;
45316;SDS011;31053;55.870;37.592;2024-03-02T09:55:26;32.33;;;15.73;;
45316;SDS011;31053;55.870;37.592;2024-03-02T09:58:31;34.47;;;17.48;;
45316;SDS011;31053;55.870;37.592;2024-03-02T10:01:35;37.00;;;16.55;;
45316;SDS011;31053;55.870;37.592;2024-03-02T10:04:40;31.77;;;15.90;;
45316;SDS011;31053;55.870;37.592;2024-03-02T10:07:51;34.13;;;18.65;;
45316;SDS011;31053;55.870;37.592;2024-03-02T10:11:02;47.15;;;21.23;;
45316;SDS011;31053;55.870;37.592;2024-03-02T10:14:08;44.63;;;20.88;;
45316;SDS011;31053;55.870;37.592;2024-03-02T10:17:17;36.55;;;16.38;;
45316;SDS011;31053;55.870;37.592;2024-03-02T10:20:22;32.92;;;17.52;;
45316;SDS011;31053;55.870;37.592;2024-03-02T10:23:28;37.45;;;20.27;;
45316;SDS011;31053;55.870;37.592;2024-03-02T10:26:33;43.08;;;20.27;;
45316;SDS011;31053;55.870;37.592;2024-03-02T10:29:38;44.45;;;21.10;;
45316;SDS011;31053;55.870;37.592;2024-03-02T10:32:44;32.08;;;15.38;;
45316;SDS011;31053;55.870;37.592;2024-03-02T10:35:49;27.45;;;14.55;;
45316;SDS011;31053;55.870;37.592;2024-03-02T10:38:55;27.13;;;14.75;;
45316;SDS011;31053;55.870;37.592;2024-03-02T10:42:03;29.65;;;16.33;;
45316;SDS011;31053;55.870;37.592;2024-03-02T10:45:12;42.28;;;17.50;;
45316;SDS011;31053;55.870;37.592;2024-03-02T10:48:17;34.80;;;17.67;;
45316;SDS011;31053;55.870;37.592;2024-03-02T10:51:21;27.23;;;15.02;;
45316;SDS011;31053;55.870;37.592;2024-03-02T10:54:29;26.23;;;13.50;;
45316;SDS011;31053;55.870;37.592;2024-03-02T11:00:57;32.22;;;16.00;;
45316;SDS011;31053;55.870;37.592;2024-03-02T11:04:08;31.95;;;15.40;;
45316;SDS011;31053;55.870;37.592;2024-03-02T11:07:13;32.17;;;15.47;;
45316;SDS011;31053;55.870;37.592;2024-03-02T11:10:17;31.98;;;15.15;;
45316;SDS011;31053;55.870;37.592;2024-03-02T11:13:24;27.88;;;15.48;;
45316;SDS011;31053;55.870;37.592;2024-03-02T11:19:39;32.00;;;15.65;;
45316;SDS011;31053;55.870;37.592;2024-03-02T11:22:44;28.27;;;13.40;;
45316;SDS011;31053;55.870;37.592;2024-03-02T11:25:49;25.83;;;13.68;;
45316;SDS011;31053;55.870;37.592;2024-03-02T11:28:54;31.83;;;14.70;;
45316;SDS011;31053;55.870;37.592;2024-03-02T11:32:00;44.67;;;19.00;;
45316;SDS011;31053;55.870;37.592;2024-03-02T11:35:06;32.63;;;13.77;;
45316;SDS011;31053;55.870;37.592;2024-03-02T11:38:17;35.83;;;16.98;;
45316;SDS011;31053;55.870;37.592;2024-03-02T11:41:30;29.00;;;14.70;;
45316;SDS011;31053;55.870;37.592;2024-03-02T11:44:36;38.33;;;17.83;;
45316;SDS011;31053;55.870;37.592;2024-03-02T11:47:50;33.22;;;15.25;;
45316;SDS011;31053;55.870;37.592;2024-03-02T11:50:57;30.75;;;15.57;;
45316;SDS011;31053;55.870;37.592;2024-03-02T11:54:02;28.42;;;14.73;;
45316;SDS011;31053;55.870;37.592;2024-03-02T11:57:11;45.15;;;17.63;;
45316;SDS011;31053;55.870;37.592;2024-03-02T12:00:28;31.98;;;15.18;;
45316;SDS011;31053;55.870;37.592;2024-03-02T12:03:32;34.88;;;15.98;;
45316;SDS011;31053;55.870;37.592;2024-03-02T12:06:41;29.13;;;13.60;;
45316;SDS011;31053;55.870;37.592;2024-03-02T12:09:47;36.85;;;15.98;;
45316;SDS011;31053;55.870;37.592;2024-03-02T12:13:15;34.65;;;15.40;;
45316;SDS011;31053;55.870;37.592;2024-03-02T12:16:23;37.42;;;15.70;;
45316;SDS011;31053;55.870;37.592;2024-03-02T12:19:35;36.80;;;18.75;;
45316;SDS011;31053;55.870;37.592;2024-03-02T12:22:40;33.15;;;15.00;;
45316;SDS011;31053;55.870;37.592;2024-03-02T12:25:44;42.33;;;20.42;;
45316;SDS011;31053;55.870;37.592;2024-03-02T12:28:49;52.22;;;19.73;;
45316;SDS011;31053;55.870;37.592;2024-03-02T12:31:54;27.48;;;14.68;;
45316;SDS011;31053;55.870;37.592;2024-03-02T12:34:59;31.08;;;14.32;;
45316;SDS011;31053;55.870;37.592;2024-03-02T12:38:05;41.97;;;21.00;;
45316;SDS011;31053;55.870;37.592;2024-03-02T12:41:09;35.83;;;19.50;;
45316;SDS011;31053;55.870;37.592;2024-03-02T12:44:13;46.70;;;20.25;;
45316;SDS011;31053;55.870;37.592;2024-03-02T12:47:17;37.65;;;18.02;;
45316;SDS011;31053;55.870;37.592;2024-03-02T12:50:23;37.53;;;17.70;;
45316;SDS011;31053;55.870;37.592;2024-03-02T12:53:28;36.15;;;17.88;;
45316;SDS011;31053;55.870;37.592;2024-03-02T12:56:32;42.85;;;18.75;;
45316;SDS011;31053;55.870;37.592;2024-03-02T12:59:37;28.45;;;14.90;;
45316;SDS011;31053;55.870;37.592;2024-03-02T13:02:42;43.33;;;20.48;;
45316;SDS011;31053;55.870;37.592;2024-03-02T13:05:50;38.08;;;18.33;;
45316;SDS011;31053;55.870;37.592;2024-03-02T13:09:00;27.60;;;15.43;;
45316;SDS011;31053;55.870;37.592;2024-03-02T13:12:04;30.50;;;14.63;;
45316;SDS011;31053;55.870;37.592;2024-03-02T13:15:09;36.72;;;16.95;;
45316;SDS011;31053;55.870;37.592;2024-03-02T13:18:17;34.97;;;15.95;;
45316;SDS011;31053;55.870;37.592;2024-03-02T13:21:25;38.25;;;16.23;;
45316;SDS011;31053;55.870;37.592;2024-03-02T13:24:29;32.33;;;13.50;;
45316;SDS011;31053;55.870;37.592;2024-03-02T13:27:35;37.33;;;18.65;;
45316;SDS011;31053;55.870;37.592;2024-03-02T13:30:39;41.38;;;19.90;;
45316;SDS011;31053;55.870;37.592;2024-03-02T13:33:44;28.35;;;13.70;;
45316;SDS011;31053;55.870;37.592;2024-03-02T13:36:49;35.63;;;14.02;;
45316;SDS011;31053;55.870;37.592;2024-03-02T13:39:53;27.55;;;12.63;;
45316;SDS011;31053;55.870;37.592;2024-03-02T13:42:58;24.08;;;11.80;;
45316;SDS011;31053;55.870;37.592;2024-03-02T13:46:03;22.15;;;10.23;;
45316;SDS011;31053;55.870;37.592;2024-03-02T13:49:08;26.83;;;12.98;;
45316;SDS011;31053;55.870;37.592;2024-03-02T13:52:15;34.47;;;14.73;;
45316;SDS011;31053;55.870;37.592;2024-03-02T13:55:24;25.55;;;12.82;;
45316;SDS011;31053;55.870;37.592;2024-03-02T13:58:32;30.52;;;12.95;;
45316;SDS011;31053;55.870;37.592;2024-03-02T14:01:36;29.83;;;14.63;;
45316;SDS011;31053;55.870;37.592;2024-03-02T14:04:41;29.65;;;12.48;;
45316;SDS011;31053;55.870;37.592;2024-03-02T14:07:46;26.92;;;14.05;;
45316;SDS011;31053;55.870;37.592;2024-03-02T14:10:51;25.00;;;10.80;;
45316;SDS011;31053;55.870;37.592;2024-03-02T14:13:55;23.98;;;11.32;;
45316;SDS011;31053;55.870;37.592;2024-03-02T14:17:01;26.90;;;10.68;;
45316;SDS011;31053;55.870;37.592;2024-03-02T14:20:11;18.25;;;10.70;;
45316;SDS011;31053;55.870;37.592;2024-03-02T14:26:22;24.63;;;11.63;;
45316;SDS011;31053;55.870;37.592;2024-03-02T14:29:26;27.80;;;11.60;;
45316;SDS011;31053;55.870;37.592;2024-03-02T14:32:31;26.95;;;13.35;;
45316;SDS011;31053;55.870;37.592;2024-03-02T14:35:36;29.23;;;14.13;;
45316;SDS011;31053;55.870;37.592;2024-03-02T14:38:40;32.17;;;15.52;;
45316;SDS011;31053;55.870;37.592;2024-03-02T14:41:45;23.00;;;11.68;;
45316;SDS011;31053;55.870;37.592;2024-03-02T14:44:50;23.30;;;12.07;;
45316;SDS011;31053;55.870;37.592;2024-03-02T14:47:54;28.15;;;14.48;;
45316;SDS011;31053;55.870;37.592;2024-03-02T14:50:59;25.35;;;13.18;;
45316;SDS011;31053;55.870;37.592;2024-03-02T14:54:04;25.95;;;11.75;;
45316;SDS011;31053;55.870;37.592;2024-03-02T14:57:09;32.15;;;15.40;;
45316;SDS011;31053;55.870;37.592;2024-03-02T15:00:14;34.80;;;15.40;;
45316;SDS011;31053;55.870;37.592;2024-03-02T15:03:19;32.22;;;16.25;;
45316;SDS011;31053;55.870;37.592;2024-03-02T15:06:23;26.80;;;14.07;;
45316;SDS011;31053;55.870;37.592;2024-03-02T15:09:28;32.30;;;14.65;;
45316;SDS011;31053;55.870;37.592;2024-03-02T15:12:33;32.53;;;15.07;;
45316;SDS011;31053;55.870;37.592;2024-03-02T15:15:38;36.25;;;17.83;;
45316;SDS011;31053;55.870;37.592;2024-03-02T15:18:43;29.58;;;14.50;;
45316;SDS011;31053;55.870;37.592;2024-03-02T15:21:49;27.17;;;14.13;;
45316;SDS011;31053;55.870;37.592;2024-03-02T15:24:54;29.88;;;14.77;;
45316;SDS011;31053;55.870;37.592;2024-03-02T15:27:58;30.15;;;16.00;;
45316;SDS011;31053;55.870;37.592;2024-03-02T15:31:03;38.58;;;18.75;;
45316;SDS011;31053;55.870;37.592;2024-03-02T15:34:11;38.10;;;17.63;;
45316;SDS011;31053;55.870;37.592;2024-03-02T15:37:15;31.17;;;15.32;;
45316;SDS011;31053;55.870;37.592;2024-03-02T15:40:20;34.30;;;15.82;;
45316;SDS011;31053;55.870;37.592;2024-03-02T15:43:24;40.85;;;19.85;;
45316;SDS011;31053;55.870;37.592;2024-03-02T15:46:29;29.42;;;14.63;;
45316;SDS011;31053;55.870;37.592;2024-03-02T15:49:34;50.65;;;19.30;;
45316;SDS011;31053;55.870;37.592;2024-03-02T15:52:38;42.88;;;17.17;;
45316;SDS011;31053;55.870;37.592;2024-03-02T15:55:43;34.10;;;16.17;;
45316;SDS011;31053;55.870;37.592;2024-03-02T15:58:48;40.35;;;16.92;;
45316;SDS011;31053;55.870;37.592;2024-03-02T16:01:52;29.33;;;14.57;;
45316;SDS011;31053;55.870;37.592;2024-03-02T16:04:57;35.80;;;16.90;;
45316;SDS011;31053;55.870;37.592;2024-03-02T16:08:02;32.08;;;15.32;;
45316;SDS011;31053;55.870;37.592;2024-03-02T16:11:07;31.92;;;16.23;;
45316;SDS011;31053;55.870;37.592;2024-03-02T16:14:15;33.70;;;14.75;;
45316;SDS011;31053;55.870;37.592;2024-03-02T16:17:20;29.77;;;14.27;;
45316;SDS011;31053;55.870;37.592;2024-03-02T16:20:25;29.15;;;13.50;;
45316;SDS011;31053;55.870;37.592;2024-03-02T16:23:30;29.10;;;14.38;;
45316;SDS011;31053;55.870;37.592;2024-03-02T16:26:34;43.33;;;20.50;;
45316;SDS011;31053;55.870;37.592;2024-03-02T16:29:39;39.00;;;16.17;;
45316;SDS011;31053;55.870;37.592;2024-03-02T16:32:44;46.58;;;19.60;;
45316;SDS011;31053;55.870;37.592;2024-03-02T16:35:48;33.33;;;17.20;;
45316;SDS011;31053;55.870;37.592;2024-03-02T16:38:54;35.83;;;15.90;;
45316;SDS011;31053;55.870;37.592;2024-03-02T16:41:59;35.30;;;15.02;;
45316;SDS011;31053;55.870;37.592;2024-03-02T16:45:04;28.02;;;12.90;;
45316;SDS011;31053;55.870;37.592;2024-03-02T16:48:11;30.92;;;15.90;;
45316;SDS011;31053;55.870;37.592;2024-03-02T16:51:16;31.98;;;14.55;;
45316;SDS011;31053;55.870;37.592;2024-03-02T16:54:21;26.23;;;12.80;;
45316;SDS011;31053;55.870;37.592;2024-03-02T16:57:26;33.53;;;13.85;;
45316;SDS011;31053;55.870;37.592;2024-03-02T17:00:32;29.25;;;15.13;;
45316;SDS011;31053;55.870;37.592;2024-03-02T17:03:38;35.38;;;15.88;;
45316;SDS011;31053;55.870;37.592;2024-03-02T17:06:43;46.95;;;21.15;;
45316;SDS011;31053;55.870;37.592;2024-03-02T17:09:53;35.33;;;17.55;;
45316;SDS011;31053;55.870;37.592;2024-03-02T17:13:01;35.70;;;18.42;;
45316;SDS011;31053;55.870;37.592;2024-03-02T17:16:05;31.60;;;16.10;;
45316;SDS011;31053;55.870;37.592;2024-03-02T17:19:11;34.55;;;16.85;;
45316;SDS011;31053;55.870;37.592;2024-03-02T17:22:15;37.80;;;17.65;;
45316;SDS011;31053;55.870;37.592;2024-03-02T17:25:20;33.58;;;16.70;;
45316;SDS011;31053;55.870;37.592;2024-03-02T17:28:25;29.63;;;14.05;;
45316;SDS011;31053;55.870;37.592;2024-03-02T17:31:30;42.65;;;18.80;;
45316;SDS011;31053;55.870;37.592;2024-03-02T17:34:35;39.85;;;19.50;;
45316;SDS011;31053;55.870;37.592;2024-03-02T17:37:39;47.75;;;22.27;;
45316;SDS011;31053;55.870;37.592;2024-03-02T17:40:44;36.42;;;16.33;;
45316;SDS011;31053;55.870;37.592;2024-03-02T17:43:49;43.60;;;20.88;;
45316;SDS011;31053;55.870;37.592;2024-03-02T17:46:54;46.35;;;22.98;;
45316;SDS011;31053;55.870;37.592;2024-03-02T17:49:59;49.67;;;20.77;;
45316;SDS011;31053;55.870;37.592;2024-03-02T17:53:03;38.15;;;17.33;;
45316;SDS011;31053;55.870;37.592;2024-03-02T17:56:11;46.38;;;21.08;;
45316;SDS011;31053;55.870;37.592;2024-03-02T17:59:16;46.83;;;22.30;;
45316;SDS011;31053;55.870;37.592;2024-03-02T18:02:21;44.08;;;20.70;;
45316;SDS011;31053;55.870;37.592;2024-03-02T18:05:25;34.80;;;17.05;;